sensor_id;sensor_type;location;lat;lon;timestamp;temperature;humidity
9808;DHT22;4943;52.550;13.462;2023-07-24T00:00:40;22.10;99.90
9808;DHT22;4943;52.550;13.462;2023-07-24T00:03:08;22.10;99.90
9808;DHT22;4943;52.550;13.462;2023-07-24T00:05:37;22.20;99.90
9808;DHT22;4943;52.550;13.462;2023-07-24T00:08:05;22.20;99.90
9808;DHT22;4943;52.550;13.462;2023-07-24T00:10:33;22.20;99.90
9808;DHT22;4943;52.550;13.462;2023-07-24T00:13:03;22.20;99.90
9808;DHT22;4943;52.550;13.462;2023-07-24T00:15:31;22.20;99.90
9808;DHT22;4943;52.550;13.462;2023-07-24T00:17:59;22.20;99.90
9808;DHT22;4943;52.550;13.462;2023-07-24T00:20:27;22.20;99.90
9808;DHT22;4943;52.550;13.462;2023-07-24T00:22:55;22.20;99.90
9808;DHT22;4943;52.550;13.462;2023-07-24T00:25:23;22.20;99.90
9808;DHT22;4943;52.550;13.462;2023-07-24T00:27:51;22.10;99.90
9808;DHT22;4943;52.550;13.462;2023-07-24T00:30:23;22.10;99.90
9808;DHT22;4943;52.550;13.462;2023-07-24T00:32:51;22.10;99.90
9808;DHT22;4943;52.550;13.462;2023-07-24T00:35:19;22.10;99.90
9808;DHT22;4943;52.550;13.462;2023-07-24T00:37:47;22.10;99.90
9808;DHT22;4943;52.550;13.462;2023-07-24T00:40:15;22.10;99.90
9808;DHT22;4943;52.550;13.462;2023-07-24T00:42:46;22.10;99.90
9808;DHT22;4943;52.550;13.462;2023-07-24T00:45:17;22.10;99.90
9808;DHT22;4943;52.550;13.462;2023-07-24T00:47:46;22.10;99.90
9808;DHT22;4943;52.550;13.462;2023-07-24T00:50:15;22.10;99.90
9808;DHT22;4943;52.550;13.462;2023-07-24T00:52:43;22.10;99.90
9808;DHT22;4943;52.550;13.462;2023-07-24T00:55:13;22.10;99.80
9808;DHT22;4943;52.550;13.462;2023-07-24T00:57:44;22.10;99.80
9808;DHT22;4943;52.550;13.462;2023-07-24T01:00:13;22.10;99.70
9808;DHT22;4943;52.550;13.462;2023-07-24T01:02:41;22.10;99.70
9808;DHT22;4943;52.550;13.462;2023-07-24T01:05:13;22.10;99.60
9808;DHT22;4943;52.550;13.462;2023-07-24T01:07:41;22.10;99.60
9808;DHT22;4943;52.550;13.462;2023-07-24T01:10:09;22.10;99.40
9808;DHT22;4943;52.550;13.462;2023-07-24T01:12:42;22.10;99.40
9808;DHT22;4943;52.550;13.462;2023-07-24T01:15:21;22.00;99.30
9808;DHT22;4943;52.550;13.462;2023-07-24T01:17:56;22.00;99.40
9808;DHT22;4943;52.550;13.462;2023-07-24T01:20:29;21.90;99.40
9808;DHT22;4943;52.550;13.462;2023-07-24T01:23:10;21.90;99.40
9808;DHT22;4943;52.550;13.462;2023-07-24T01:25:54;21.90;99.50
9808;DHT22;4943;52.550;13.462;2023-07-24T01:28:23;21.80;99.50
9808;DHT22;4943;52.550;13.462;2023-07-24T01:30:51;21.80;99.50
9808;DHT22;4943;52.550;13.462;2023-07-24T01:33:19;21.80;99.60
9808;DHT22;4943;52.550;13.462;2023-07-24T01:35:49;21.80;99.60
9808;DHT22;4943;52.550;13.462;2023-07-24T01:38:18;21.80;99.70
9808;DHT22;4943;52.550;13.462;2023-07-24T01:40:47;21.80;99.70
9808;DHT22;4943;52.550;13.462;2023-07-24T01:43:17;21.90;99.70
9808;DHT22;4943;52.550;13.462;2023-07-24T01:45:45;21.90;99.70
9808;DHT22;4943;52.550;13.462;2023-07-24T01:48:14;21.90;99.70
9808;DHT22;4943;52.550;13.462;2023-07-24T01:50:42;21.90;99.70
9808;DHT22;4943;52.550;13.462;2023-07-24T01:53:10;21.90;99.70
9808;DHT22;4943;52.550;13.462;2023-07-24T01:55:38;21.90;99.70
9808;DHT22;4943;52.550;13.462;2023-07-24T01:58:06;21.90;99.70
9808;DHT22;4943;52.550;13.462;2023-07-24T02:00:36;22.00;99.80
9808;DHT22;4943;52.550;13.462;2023-07-24T02:03:04;22.00;99.80
9808;DHT22;4943;52.550;13.462;2023-07-24T02:05:32;22.00;99.90
9808;DHT22;4943;52.550;13.462;2023-07-24T02:08:01;22.00;99.90
9808;DHT22;4943;52.550;13.462;2023-07-24T02:10:29;22.00;99.90
9808;DHT22;4943;52.550;13.462;2023-07-24T02:12:57;22.00;99.90
9808;DHT22;4943;52.550;13.462;2023-07-24T02:15:25;22.00;99.90
9808;DHT22;4943;52.550;13.462;2023-07-24T02:17:54;22.00;99.90
9808;DHT22;4943;52.550;13.462;2023-07-24T02:20:22;22.00;99.90
9808;DHT22;4943;52.550;13.462;2023-07-24T02:22:51;22.00;99.90
9808;DHT22;4943;52.550;13.462;2023-07-24T02:25:19;22.00;99.90
9808;DHT22;4943;52.550;13.462;2023-07-24T02:27:47;22.00;99.90
9808;DHT22;4943;52.550;13.462;2023-07-24T02:30:15;22.00;99.90
9808;DHT22;4943;52.550;13.462;2023-07-24T02:32:43;22.00;99.90
9808;DHT22;4943;52.550;13.462;2023-07-24T02:35:12;22.00;99.90
9808;DHT22;4943;52.550;13.462;2023-07-24T02:37:40;22.00;99.90
9808;DHT22;4943;52.550;13.462;2023-07-24T02:40:09;22.00;99.90
9808;DHT22;4943;52.550;13.462;2023-07-24T02:42:37;22.00;99.90
9808;DHT22;4943;52.550;13.462;2023-07-24T02:45:07;22.00;99.90
9808;DHT22;4943;52.550;13.462;2023-07-24T02:47:37;22.00;99.90
9808;DHT22;4943;52.550;13.462;2023-07-24T02:50:06;22.00;99.90
9808;DHT22;4943;52.550;13.462;2023-07-24T02:52:36;22.00;99.90
9808;DHT22;4943;52.550;13.462;2023-07-24T02:55:04;22.00;99.90
9808;DHT22;4943;52.550;13.462;2023-07-24T02:57:33;22.10;99.90
9808;DHT22;4943;52.550;13.462;2023-07-24T03:00:01;22.10;99.90
9808;DHT22;4943;52.550;13.462;2023-07-24T03:02:32;22.10;99.90
9808;DHT22;4943;52.550;13.462;2023-07-24T03:05:00;22.10;99.90
9808;DHT22;4943;52.550;13.462;2023-07-24T03:07:28;22.00;99.90
9808;DHT22;4943;52.550;13.462;2023-07-24T03:09:57;22.00;99.90
9808;DHT22;4943;52.550;13.462;2023-07-24T03:12:25;22.00;99.90
9808;DHT22;4943;52.550;13.462;2023-07-24T03:14:53;22.00;99.90
9808;DHT22;4943;52.550;13.462;2023-07-24T03:17:22;22.00;99.90
9808;DHT22;4943;52.550;13.462;2023-07-24T03:19:50;22.10;99.90
9808;DHT22;4943;52.550;13.462;2023-07-24T03:22:18;22.10;99.90
9808;DHT22;4943;52.550;13.462;2023-07-24T03:24:47;22.10;99.90
9808;DHT22;4943;52.550;13.462;2023-07-24T03:27:16;22.10;99.90
9808;DHT22;4943;52.550;13.462;2023-07-24T03:29:44;22.10;99.90
9808;DHT22;4943;52.550;13.462;2023-07-24T03:32:12;22.10;99.90
9808;DHT22;4943;52.550;13.462;2023-07-24T03:34:41;22.10;99.90
9808;DHT22;4943;52.550;13.462;2023-07-24T03:37:09;22.10;99.90
9808;DHT22;4943;52.550;13.462;2023-07-24T03:39:37;22.20;99.90
9808;DHT22;4943;52.550;13.462;2023-07-24T03:42:05;22.20;99.90
9808;DHT22;4943;52.550;13.462;2023-07-24T03:44:35;22.20;99.90
9808;DHT22;4943;52.550;13.462;2023-07-24T03:47:03;22.20;99.90
9808;DHT22;4943;52.550;13.462;2023-07-24T03:49:31;22.20;99.90
9808;DHT22;4943;52.550;13.462;2023-07-24T03:51:59;22.20;99.90
9808;DHT22;4943;52.550;13.462;2023-07-24T03:54:27;22.20;99.90
9808;DHT22;4943;52.550;13.462;2023-07-24T03:56:55;22.30;99.90
9808;DHT22;4943;52.550;13.462;2023-07-24T03:59:23;22.20;99.90
9808;DHT22;4943;52.550;13.462;2023-07-24T04:01:53;22.30;99.90
9808;DHT22;4943;52.550;13.462;2023-07-24T04:04:21;22.20;99.90
9808;DHT22;4943;52.550;13.462;2023-07-24T04:06:49;22.20;99.90
9808;DHT22;4943;52.550;13.462;2023-07-24T04:09:17;22.30;99.90
9808;DHT22;4943;52.550;13.462;2023-07-24T04:11:46;22.30;99.90
9808;DHT22;4943;52.550;13.462;2023-07-24T04:14:14;22.30;99.90
9808;DHT22;4943;52.550;13.462;2023-07-24T04:16:42;22.30;99.90
9808;DHT22;4943;52.550;13.462;2023-07-24T04:19:13;22.20;99.90
9808;DHT22;4943;52.550;13.462;2023-07-24T04:21:41;22.20;99.90
9808;DHT22;4943;52.550;13.462;2023-07-24T04:24:09;22.20;99.90
9808;DHT22;4943;52.550;13.462;2023-07-24T04:26:37;22.20;99.90
9808;DHT22;4943;52.550;13.462;2023-07-24T04:29:06;22.20;99.90
9808;DHT22;4943;52.550;13.462;2023-07-24T04:31:34;22.20;99.90
9808;DHT22;4943;52.550;13.462;2023-07-24T04:34:03;22.20;99.90
9808;DHT22;4943;52.550;13.462;2023-07-24T04:36:32;22.30;99.90
9808;DHT22;4943;52.550;13.462;2023-07-24T04:39:00;22.30;99.90
9808;DHT22;4943;52.550;13.462;2023-07-24T04:41:28;22.40;99.90
9808;DHT22;4943;52.550;13.462;2023-07-24T04:43:56;22.50;99.90
9808;DHT22;4943;52.550;13.462;2023-07-24T04:46:24;22.50;99.90
9808;DHT22;4943;52.550;13.462;2023-07-24T04:48:53;22.50;99.90
9808;DHT22;4943;52.550;13.462;2023-07-24T04:51:21;22.50;99.90
9808;DHT22;4943;52.550;13.462;2023-07-24T04:53:50;22.60;99.90
9808;DHT22;4943;52.550;13.462;2023-07-24T04:56:18;22.60;99.90
9808;DHT22;4943;52.550;13.462;2023-07-24T04:58:46;22.60;99.90
9808;DHT22;4943;52.550;13.462;2023-07-24T05:01:14;22.70;99.90
9808;DHT22;4943;52.550;13.462;2023-07-24T05:03:42;22.80;99.90
9808;DHT22;4943;52.550;13.462;2023-07-24T05:06:10;22.80;99.90
9808;DHT22;4943;52.550;13.462;2023-07-24T05:08:39;22.90;99.90
9808;DHT22;4943;52.550;13.462;2023-07-24T05:11:08;22.90;99.90
9808;DHT22;4943;52.550;13.462;2023-07-24T05:13:36;23.00;99.90
9808;DHT22;4943;52.550;13.462;2023-07-24T05:16:04;23.00;99.90
9808;DHT22;4943;52.550;13.462;2023-07-24T05:18:32;23.00;99.90
9808;DHT22;4943;52.550;13.462;2023-07-24T05:21:01;23.10;99.90
9808;DHT22;4943;52.550;13.462;2023-07-24T05:23:29;23.10;99.90
9808;DHT22;4943;52.550;13.462;2023-07-24T05:25:57;23.30;99.90
9808;DHT22;4943;52.550;13.462;2023-07-24T05:28:28;23.30;99.90
9808;DHT22;4943;52.550;13.462;2023-07-24T05:31:00;23.30;99.90
9808;DHT22;4943;52.550;13.462;2023-07-24T05:33:28;23.40;99.90
9808;DHT22;4943;52.550;13.462;2023-07-24T05:35:58;23.50;99.90
9808;DHT22;4943;52.550;13.462;2023-07-24T05:38:26;23.60;99.90
9808;DHT22;4943;52.550;13.462;2023-07-24T05:40:55;23.80;99.90
9808;DHT22;4943;52.550;13.462;2023-07-24T05:43:23;23.80;99.90
9808;DHT22;4943;52.550;13.462;2023-07-24T05:45:54;23.90;99.90
9808;DHT22;4943;52.550;13.462;2023-07-24T05:48:23;24.00;99.90
9808;DHT22;4943;52.550;13.462;2023-07-24T05:50:51;24.00;99.90
9808;DHT22;4943;52.550;13.462;2023-07-24T05:53:20;24.10;99.90
9808;DHT22;4943;52.550;13.462;2023-07-24T05:55:56;24.10;99.90
9808;DHT22;4943;52.550;13.462;2023-07-24T05:58:24;24.10;99.90
9808;DHT22;4943;52.550;13.462;2023-07-24T06:00:54;24.10;99.90
9808;DHT22;4943;52.550;13.462;2023-07-24T06:03:22;24.00;99.90
9808;DHT22;4943;52.550;13.462;2023-07-24T06:05:51;23.90;99.90
9808;DHT22;4943;52.550;13.462;2023-07-24T06:08:21;23.90;99.90
9808;DHT22;4943;52.550;13.462;2023-07-24T06:10:50;23.90;99.90
9808;DHT22;4943;52.550;13.462;2023-07-24T06:13:19;23.90;99.90
9808;DHT22;4943;52.550;13.462;2023-07-24T06:15:47;23.90;99.90
9808;DHT22;4943;52.550;13.462;2023-07-24T06:18:17;23.90;99.90
9808;DHT22;4943;52.550;13.462;2023-07-24T06:20:45;23.90;99.90
9808;DHT22;4943;52.550;13.462;2023-07-24T06:23:16;23.90;99.90
9808;DHT22;4943;52.550;13.462;2023-07-24T06:25:45;23.90;99.90
9808;DHT22;4943;52.550;13.462;2023-07-24T06:28:13;23.90;99.90
9808;DHT22;4943;52.550;13.462;2023-07-24T06:30:41;23.90;99.90
9808;DHT22;4943;52.550;13.462;2023-07-24T06:33:09;23.90;99.90
9808;DHT22;4943;52.550;13.462;2023-07-24T06:35:38;23.90;99.90
9808;DHT22;4943;52.550;13.462;2023-07-24T06:38:06;23.90;99.90
9808;DHT22;4943;52.550;13.462;2023-07-24T06:40:35;23.80;99.90
9808;DHT22;4943;52.550;13.462;2023-07-24T06:43:03;23.80;99.90
9808;DHT22;4943;52.550;13.462;2023-07-24T06:45:32;23.90;99.90
9808;DHT22;4943;52.550;13.462;2023-07-24T06:48:00;23.90;99.90
9808;DHT22;4943;52.550;13.462;2023-07-24T06:50:28;23.90;99.90
9808;DHT22;4943;52.550;13.462;2023-07-24T06:52:57;23.90;99.90
9808;DHT22;4943;52.550;13.462;2023-07-24T06:55:26;23.90;99.90
9808;DHT22;4943;52.550;13.462;2023-07-24T06:57:54;24.00;99.90
9808;DHT22;4943;52.550;13.462;2023-07-24T07:00:22;24.00;99.90
9808;DHT22;4943;52.550;13.462;2023-07-24T07:02:50;24.00;99.90
9808;DHT22;4943;52.550;13.462;2023-07-24T07:05:18;24.10;99.90
9808;DHT22;4943;52.550;13.462;2023-07-24T07:07:46;24.20;99.90
9808;DHT22;4943;52.550;13.462;2023-07-24T07:10:16;24.10;99.90
9808;DHT22;4943;52.550;13.462;2023-07-24T07:12:44;24.20;99.90
9808;DHT22;4943;52.550;13.462;2023-07-24T07:15:12;24.20;99.90
9808;DHT22;4943;52.550;13.462;2023-07-24T07:17:40;24.20;99.90
9808;DHT22;4943;52.550;13.462;2023-07-24T07:20:08;24.20;99.90
9808;DHT22;4943;52.550;13.462;2023-07-24T07:22:37;24.20;99.90
9808;DHT22;4943;52.550;13.462;2023-07-24T07:25:05;24.20;99.90
9808;DHT22;4943;52.550;13.462;2023-07-24T07:27:35;24.30;99.90
9808;DHT22;4943;52.550;13.462;2023-07-24T07:30:04;24.30;99.90
9808;DHT22;4943;52.550;13.462;2023-07-24T07:32:33;24.40;99.90
9808;DHT22;4943;52.550;13.462;2023-07-24T07:35:01;24.50;99.90
9808;DHT22;4943;52.550;13.462;2023-07-24T07:37:30;24.60;99.90
9808;DHT22;4943;52.550;13.462;2023-07-24T07:39:58;24.60;99.90
9808;DHT22;4943;52.550;13.462;2023-07-24T07:42:26;24.70;99.90
9808;DHT22;4943;52.550;13.462;2023-07-24T07:44:55;24.80;99.90
9808;DHT22;4943;52.550;13.462;2023-07-24T07:47:24;24.90;99.90
9808;DHT22;4943;52.550;13.462;2023-07-24T07:49:52;25.00;99.90
9808;DHT22;4943;52.550;13.462;2023-07-24T07:52:21;25.10;99.90
9808;DHT22;4943;52.550;13.462;2023-07-24T07:54:49;25.20;99.90
9808;DHT22;4943;52.550;13.462;2023-07-24T07:57:18;25.30;99.90
9808;DHT22;4943;52.550;13.462;2023-07-24T07:59:46;25.40;99.90
9808;DHT22;4943;52.550;13.462;2023-07-24T08:02:15;25.50;99.90
9808;DHT22;4943;52.550;13.462;2023-07-24T08:04:43;25.60;99.90
9808;DHT22;4943;52.550;13.462;2023-07-24T08:07:12;25.70;99.90
9808;DHT22;4943;52.550;13.462;2023-07-24T08:09:40;25.70;99.90
9808;DHT22;4943;52.550;13.462;2023-07-24T08:12:08;25.80;99.90
9808;DHT22;4943;52.550;13.462;2023-07-24T08:14:36;26.00;99.90
9808;DHT22;4943;52.550;13.462;2023-07-24T08:17:04;26.10;99.90
9808;DHT22;4943;52.550;13.462;2023-07-24T08:19:34;26.20;99.90
9808;DHT22;4943;52.550;13.462;2023-07-24T08:22:02;26.40;99.90
9808;DHT22;4943;52.550;13.462;2023-07-24T08:24:34;26.50;99.90
9808;DHT22;4943;52.550;13.462;2023-07-24T08:27:02;26.50;99.90
9808;DHT22;4943;52.550;13.462;2023-07-24T08:29:30;26.60;99.90
9808;DHT22;4943;52.550;13.462;2023-07-24T08:32:00;26.70;99.90
9808;DHT22;4943;52.550;13.462;2023-07-24T08:34:28;26.70;99.50
9808;DHT22;4943;52.550;13.462;2023-07-24T08:36:58;26.80;99.70
9808;DHT22;4943;52.550;13.462;2023-07-24T08:39:26;26.90;99.90
9808;DHT22;4943;52.550;13.462;2023-07-24T08:41:54;27.00;99.90
9808;DHT22;4943;52.550;13.462;2023-07-24T08:44:23;27.20;99.90
9808;DHT22;4943;52.550;13.462;2023-07-24T08:46:52;27.40;99.60
9808;DHT22;4943;52.550;13.462;2023-07-24T08:49:21;27.50;99.20
9808;DHT22;4943;52.550;13.462;2023-07-24T08:51:49;27.60;99.10
9808;DHT22;4943;52.550;13.462;2023-07-24T08:54:19;27.60;98.80
9808;DHT22;4943;52.550;13.462;2023-07-24T08:56:48;27.60;98.60
9808;DHT22;4943;52.550;13.462;2023-07-24T08:59:17;27.60;98.60
9808;DHT22;4943;52.550;13.462;2023-07-24T09:01:45;27.60;98.40
9808;DHT22;4943;52.550;13.462;2023-07-24T09:04:13;27.50;98.30
9808;DHT22;4943;52.550;13.462;2023-07-24T09:06:41;27.50;98.20
9808;DHT22;4943;52.550;13.462;2023-07-24T09:09:13;27.50;98.30
9808;DHT22;4943;52.550;13.462;2023-07-24T09:11:51;27.50;98.40
9808;DHT22;4943;52.550;13.462;2023-07-24T09:14:21;27.50;98.20
9808;DHT22;4943;52.550;13.462;2023-07-24T09:16:49;27.40;98.00
9808;DHT22;4943;52.550;13.462;2023-07-24T09:19:19;27.40;97.90
9808;DHT22;4943;52.550;13.462;2023-07-24T09:21:50;27.40;98.10
9808;DHT22;4943;52.550;13.462;2023-07-24T09:24:18;27.50;97.90
9808;DHT22;4943;52.550;13.462;2023-07-24T09:26:50;27.50;97.80
9808;DHT22;4943;52.550;13.462;2023-07-24T09:29:30;27.50;97.80
9808;DHT22;4943;52.550;13.462;2023-07-24T09:31:59;27.60;97.80
9808;DHT22;4943;52.550;13.462;2023-07-24T09:34:27;27.60;97.80
9808;DHT22;4943;52.550;13.462;2023-07-24T09:36:55;27.70;97.80
9808;DHT22;4943;52.550;13.462;2023-07-24T09:39:24;27.80;97.90
9808;DHT22;4943;52.550;13.462;2023-07-24T09:42:04;27.90;97.50
9808;DHT22;4943;52.550;13.462;2023-07-24T09:44:32;28.00;97.40
9808;DHT22;4943;52.550;13.462;2023-07-24T09:47:01;28.00;97.40
9808;DHT22;4943;52.550;13.462;2023-07-24T09:49:50;28.10;97.20
9808;DHT22;4943;52.550;13.462;2023-07-24T09:52:20;28.20;97.30
9808;DHT22;4943;52.550;13.462;2023-07-24T09:54:55;28.30;97.00
9808;DHT22;4943;52.550;13.462;2023-07-24T09:57:26;28.40;96.90
9808;DHT22;4943;52.550;13.462;2023-07-24T09:59:56;28.50;96.50
9808;DHT22;4943;52.550;13.462;2023-07-24T10:02:25;28.50;96.50
9808;DHT22;4943;52.550;13.462;2023-07-24T10:04:55;28.50;96.40
9808;DHT22;4943;52.550;13.462;2023-07-24T10:07:23;28.40;96.20
9808;DHT22;4943;52.550;13.462;2023-07-24T10:09:52;28.40;96.20
9808;DHT22;4943;52.550;13.462;2023-07-24T10:12:21;28.30;96.10
9808;DHT22;4943;52.550;13.462;2023-07-24T10:14:51;28.20;96.10
9808;DHT22;4943;52.550;13.462;2023-07-24T10:17:36;28.20;96.00
9808;DHT22;4943;52.550;13.462;2023-07-24T10:20:06;28.10;96.00
9808;DHT22;4943;52.550;13.462;2023-07-24T10:22:35;28.00;95.80
9808;DHT22;4943;52.550;13.462;2023-07-24T10:25:06;28.00;95.90
9808;DHT22;4943;52.550;13.462;2023-07-24T10:27:36;27.90;95.80
9808;DHT22;4943;52.550;13.462;2023-07-24T10:30:06;27.90;95.80
9808;DHT22;4943;52.550;13.462;2023-07-24T10:32:53;27.90;95.80
9808;DHT22;4943;52.550;13.462;2023-07-24T10:35:22;28.00;96.00
9808;DHT22;4943;52.550;13.462;2023-07-24T10:37:59;28.00;95.70
9808;DHT22;4943;52.550;13.462;2023-07-24T10:40:27;28.10;95.70
9808;DHT22;4943;52.550;13.462;2023-07-24T10:42:59;28.20;95.60
9808;DHT22;4943;52.550;13.462;2023-07-24T10:45:45;28.30;95.30
9808;DHT22;4943;52.550;13.462;2023-07-24T10:48:14;28.30;94.90
9808;DHT22;4943;52.550;13.462;2023-07-24T10:50:43;28.30;95.00
9808;DHT22;4943;52.550;13.462;2023-07-24T10:53:14;28.40;95.00
9808;DHT22;4943;52.550;13.462;2023-07-24T10:55:43;28.50;94.60
9808;DHT22;4943;52.550;13.462;2023-07-24T10:58:12;28.50;94.10
9808;DHT22;4943;52.550;13.462;2023-07-24T11:00:42;28.60;94.20
9808;DHT22;4943;52.550;13.462;2023-07-24T11:03:12;28.80;94.00
9808;DHT22;4943;52.550;13.462;2023-07-24T11:05:40;28.90;93.70
9808;DHT22;4943;52.550;13.462;2023-07-24T11:08:10;29.00;94.20
9808;DHT22;4943;52.550;13.462;2023-07-24T11:10:44;29.20;93.70
9808;DHT22;4943;52.550;13.462;2023-07-24T11:13:14;29.40;93.90
9808;DHT22;4943;52.550;13.462;2023-07-24T11:15:44;29.60;93.70
9808;DHT22;4943;52.550;13.462;2023-07-24T11:18:12;29.70;93.20
9808;DHT22;4943;52.550;13.462;2023-07-24T11:20:44;29.80;92.70
9808;DHT22;4943;52.550;13.462;2023-07-24T11:23:13;29.80;92.50
9808;DHT22;4943;52.550;13.462;2023-07-24T11:25:41;29.80;92.10
9808;DHT22;4943;52.550;13.462;2023-07-24T11:28:11;29.70;91.70
9808;DHT22;4943;52.550;13.462;2023-07-24T11:30:39;29.70;91.50
9808;DHT22;4943;52.550;13.462;2023-07-24T11:33:11;29.50;91.70
9808;DHT22;4943;52.550;13.462;2023-07-24T11:35:43;29.50;91.90
9808;DHT22;4943;52.550;13.462;2023-07-24T11:38:14;29.40;91.60
9808;DHT22;4943;52.550;13.462;2023-07-24T11:40:43;29.40;92.20
9808;DHT22;4943;52.550;13.462;2023-07-24T11:43:16;29.30;91.70
9808;DHT22;4943;52.550;13.462;2023-07-24T11:45:45;29.30;91.70
9808;DHT22;4943;52.550;13.462;2023-07-24T11:48:17;29.40;92.00
9808;DHT22;4943;52.550;13.462;2023-07-24T11:50:47;29.60;92.10
9808;DHT22;4943;52.550;13.462;2023-07-24T11:53:22;29.80;92.00
9808;DHT22;4943;52.550;13.462;2023-07-24T11:55:51;29.90;91.90
9808;DHT22;4943;52.550;13.462;2023-07-24T11:58:20;29.90;91.90
9808;DHT22;4943;52.550;13.462;2023-07-24T12:00:49;29.90;91.50
9808;DHT22;4943;52.550;13.462;2023-07-24T12:03:21;29.80;91.60
9808;DHT22;4943;52.550;13.462;2023-07-24T12:05:50;29.80;91.60
9808;DHT22;4943;52.550;13.462;2023-07-24T12:08:29;29.70;90.80
9808;DHT22;4943;52.550;13.462;2023-07-24T12:10:58;29.60;90.60
9808;DHT22;4943;52.550;13.462;2023-07-24T12:13:26;29.40;90.60
9808;DHT22;4943;52.550;13.462;2023-07-24T12:15:55;29.20;90.50
9808;DHT22;4943;52.550;13.462;2023-07-24T12:18:24;29.10;90.60
9808;DHT22;4943;52.550;13.462;2023-07-24T12:20:52;28.90;90.60
9808;DHT22;4943;52.550;13.462;2023-07-24T12:23:20;28.70;90.50
9808;DHT22;4943;52.550;13.462;2023-07-24T12:25:49;28.60;90.70
9808;DHT22;4943;52.550;13.462;2023-07-24T12:28:17;28.40;92.50
9808;DHT22;4943;52.550;13.462;2023-07-24T12:30:45;28.10;93.70
9808;DHT22;4943;52.550;13.462;2023-07-24T12:33:15;27.60;94.60
9808;DHT22;4943;52.550;13.462;2023-07-24T12:35:45;27.20;95.50
9808;DHT22;4943;52.550;13.462;2023-07-24T12:38:14;26.80;96.40
9808;DHT22;4943;52.550;13.462;2023-07-24T12:40:42;26.50;97.10
9808;DHT22;4943;52.550;13.462;2023-07-24T12:43:10;26.30;97.60
9808;DHT22;4943;52.550;13.462;2023-07-24T12:45:38;26.30;98.20
9808;DHT22;4943;52.550;13.462;2023-07-24T12:48:06;26.30;98.30
9808;DHT22;4943;52.550;13.462;2023-07-24T12:50:34;26.30;98.30
9808;DHT22;4943;52.550;13.462;2023-07-24T12:53:04;26.30;98.40
9808;DHT22;4943;52.550;13.462;2023-07-24T12:55:36;26.30;98.80
9808;DHT22;4943;52.550;13.462;2023-07-24T12:58:04;26.30;99.30
9808;DHT22;4943;52.550;13.462;2023-07-24T13:00:32;26.40;99.60
9808;DHT22;4943;52.550;13.462;2023-07-24T13:03:00;26.50;99.60
9808;DHT22;4943;52.550;13.462;2023-07-24T13:05:29;26.60;99.60
9808;DHT22;4943;52.550;13.462;2023-07-24T13:07:57;26.70;99.50
9808;DHT22;4943;52.550;13.462;2023-07-24T13:10:27;26.90;99.50
9808;DHT22;4943;52.550;13.462;2023-07-24T13:12:55;27.00;99.20
9808;DHT22;4943;52.550;13.462;2023-07-24T13:15:23;26.90;98.90
9808;DHT22;4943;52.550;13.462;2023-07-24T13:17:52;26.80;99.00
9808;DHT22;4943;52.550;13.462;2023-07-24T13:20:20;26.80;99.10
9808;DHT22;4943;52.550;13.462;2023-07-24T13:22:48;26.70;99.20
9808;DHT22;4943;52.550;13.462;2023-07-24T13:25:16;26.70;99.50
9808;DHT22;4943;52.550;13.462;2023-07-24T13:27:46;26.80;99.70
9808;DHT22;4943;52.550;13.462;2023-07-24T13:30:14;26.80;99.80
9808;DHT22;4943;52.550;13.462;2023-07-24T13:32:42;26.80;99.90
9808;DHT22;4943;52.550;13.462;2023-07-24T13:35:10;26.80;99.90
9808;DHT22;4943;52.550;13.462;2023-07-24T13:37:38;27.00;99.90
9808;DHT22;4943;52.550;13.462;2023-07-24T13:40:08;27.00;99.90
9808;DHT22;4943;52.550;13.462;2023-07-24T13:42:36;27.10;99.90
9808;DHT22;4943;52.550;13.462;2023-07-24T13:45:07;27.20;99.90
9808;DHT22;4943;52.550;13.462;2023-07-24T13:47:35;27.40;99.90
9808;DHT22;4943;52.550;13.462;2023-07-24T13:50:04;27.50;99.90
9808;DHT22;4943;52.550;13.462;2023-07-24T13:52:33;27.70;99.90
9808;DHT22;4943;52.550;13.462;2023-07-24T13:55:01;27.90;99.90
9808;DHT22;4943;52.550;13.462;2023-07-24T13:57:29;28.00;99.90
9808;DHT22;4943;52.550;13.462;2023-07-24T13:59:57;28.10;99.90
9808;DHT22;4943;52.550;13.462;2023-07-24T14:02:27;28.10;99.90
9808;DHT22;4943;52.550;13.462;2023-07-24T14:04:55;28.20;99.90
9808;DHT22;4943;52.550;13.462;2023-07-24T14:07:23;28.30;99.90
9808;DHT22;4943;52.550;13.462;2023-07-24T14:09:51;28.40;99.90
9808;DHT22;4943;52.550;13.462;2023-07-24T14:12:20;28.40;99.90
9808;DHT22;4943;52.550;13.462;2023-07-24T14:14:48;28.30;99.90
9808;DHT22;4943;52.550;13.462;2023-07-24T14:17:16;28.20;99.90
9808;DHT22;4943;52.550;13.462;2023-07-24T14:19:47;28.10;99.90
9808;DHT22;4943;52.550;13.462;2023-07-24T14:22:15;27.90;99.90
9808;DHT22;4943;52.550;13.462;2023-07-24T14:24:43;27.80;99.90
9808;DHT22;4943;52.550;13.462;2023-07-24T14:27:13;27.70;99.90
9808;DHT22;4943;52.550;13.462;2023-07-24T14:29:41;27.70;99.90
9808;DHT22;4943;52.550;13.462;2023-07-24T14:32:09;27.70;99.90
9808;DHT22;4943;52.550;13.462;2023-07-24T14:34:38;27.70;99.90
9808;DHT22;4943;52.550;13.462;2023-07-24T14:37:11;27.70;99.90
9808;DHT22;4943;52.550;13.462;2023-07-24T14:39:39;27.70;99.90
9808;DHT22;4943;52.550;13.462;2023-07-24T14:42:07;27.70;99.90
9808;DHT22;4943;52.550;13.462;2023-07-24T14:44:35;27.80;99.90
9808;DHT22;4943;52.550;13.462;2023-07-24T14:47:03;27.80;99.90
9808;DHT22;4943;52.550;13.462;2023-07-24T14:49:32;27.80;99.90
9808;DHT22;4943;52.550;13.462;2023-07-24T14:52:00;27.80;99.90
9808;DHT22;4943;52.550;13.462;2023-07-24T14:54:30;27.70;99.90
9808;DHT22;4943;52.550;13.462;2023-07-24T14:56:58;27.70;99.90
9808;DHT22;4943;52.550;13.462;2023-07-24T14:59:48;27.70;99.90
9808;DHT22;4943;52.550;13.462;2023-07-24T15:02:16;27.70;99.90
9808;DHT22;4943;52.550;13.462;2023-07-24T15:04:45;27.60;99.90
9808;DHT22;4943;52.550;13.462;2023-07-24T15:07:13;27.60;99.90
9808;DHT22;4943;52.550;13.462;2023-07-24T15:09:43;27.50;99.90
9808;DHT22;4943;52.550;13.462;2023-07-24T15:12:11;27.40;99.90
9808;DHT22;4943;52.550;13.462;2023-07-24T15:14:39;27.40;99.90
9808;DHT22;4943;52.550;13.462;2023-07-24T15:17:07;27.30;99.90
9808;DHT22;4943;52.550;13.462;2023-07-24T15:19:35;27.20;99.90
9808;DHT22;4943;52.550;13.462;2023-07-24T15:22:04;27.20;99.90
9808;DHT22;4943;52.550;13.462;2023-07-24T15:24:32;27.30;99.90
9808;DHT22;4943;52.550;13.462;2023-07-24T15:27:02;27.40;99.90
9808;DHT22;4943;52.550;13.462;2023-07-24T15:29:35;27.60;99.90
9808;DHT22;4943;52.550;13.462;2023-07-24T15:32:05;27.80;99.90
9808;DHT22;4943;52.550;13.462;2023-07-24T15:34:33;28.00;99.90
9808;DHT22;4943;52.550;13.462;2023-07-24T15:37:05;28.20;99.90
9808;DHT22;4943;52.550;13.462;2023-07-24T15:39:33;28.40;99.90
9808;DHT22;4943;52.550;13.462;2023-07-24T15:42:03;28.50;99.90
9808;DHT22;4943;52.550;13.462;2023-07-24T15:44:32;28.60;99.90
9808;DHT22;4943;52.550;13.462;2023-07-24T15:47:00;28.70;99.90
9808;DHT22;4943;52.550;13.462;2023-07-24T15:49:28;28.70;99.90
9808;DHT22;4943;52.550;13.462;2023-07-24T15:51:56;28.80;99.90
9808;DHT22;4943;52.550;13.462;2023-07-24T15:54:24;29.00;99.90
9808;DHT22;4943;52.550;13.462;2023-07-24T15:56:52;29.40;99.90